sensor_id;sensor_type;location;lat;lon;timestamp;P1;durP1;ratioP1;P2;durP2;ratioP2
19599;SDS011;9947;57.722;12.012;2022-09-12T00:01:09;10.80;;;6.10;;
19599;SDS011;9947;57.722;12.012;2022-09-12T00:03:37;8.83;;;5.77;;
19599;SDS011;9947;57.722;12.012;2022-09-12T00:06:14;7.87;;;5.83;;
19599;SDS011;9947;57.722;12.012;2022-09-12T00:08:45;10.70;;;5.67;;
19599;SDS011;9947;57.722;12.012;2022-09-12T00:11:15;10.77;;;6.17;;
19599;SDS011;9947;57.722;12.012;2022-09-12T00:13:41;11.23;;;5.90;;
19599;SDS011;9947;57.722;12.012;2022-09-12T00:16:15;9.07;;;5.73;;
19599;SDS011;9947;57.722;12.012;2022-09-12T00:18:43;10.33;;;6.07;;
19599;SDS011;9947;57.722;12.012;2022-09-12T00:21:12;11.83;;;6.70;;
19599;SDS011;9947;57.722;12.012;2022-09-12T00:23:44;8.30;;;5.93;;
19599;SDS011;9947;57.722;12.012;2022-09-12T00:26:12;8.20;;;5.63;;
19599;SDS011;9947;57.722;12.012;2022-09-12T00:28:39;10.10;;;6.50;;
19599;SDS011;9947;57.722;12.012;2022-09-12T00:31:17;13.20;;;6.40;;
19599;SDS011;9947;57.722;12.012;2022-09-12T00:33:46;9.40;;;5.73;;
19599;SDS011;9947;57.722;12.012;2022-09-12T00:36:15;13.07;;;6.37;;
19599;SDS011;9947;57.722;12.012;2022-09-12T00:38:43;9.60;;;6.20;;
19599;SDS011;9947;57.722;12.012;2022-09-12T00:41:16;9.53;;;6.10;;
19599;SDS011;9947;57.722;12.012;2022-09-12T00:43:45;10.23;;;5.70;;
19599;SDS011;9947;57.722;12.012;2022-09-12T00:46:15;9.23;;;6.27;;
19599;SDS011;9947;57.722;12.012;2022-09-12T00:48:58;11.30;;;6.27;;
19599;SDS011;9947;57.722;12.012;2022-09-12T00:51:30;9.30;;;6.53;;
19599;SDS011;9947;57.722;12.012;2022-09-12T00:54:02;9.73;;;6.40;;
19599;SDS011;9947;57.722;12.012;2022-09-12T00:56:33;13.23;;;7.40;;
19599;SDS011;9947;57.722;12.012;2022-09-12T00:59:05;10.53;;;6.17;;
19599;SDS011;9947;57.722;12.012;2022-09-12T01:01:40;12.43;;;6.70;;
19599;SDS011;9947;57.722;12.012;2022-09-12T01:04:10;8.90;;;6.00;;
19599;SDS011;9947;57.722;12.012;2022-09-12T01:06:43;9.80;;;6.10;;
19599;SDS011;9947;57.722;12.012;2022-09-12T01:09:11;9.60;;;6.40;;
19599;SDS011;9947;57.722;12.012;2022-09-12T01:11:46;10.47;;;6.57;;
19599;SDS011;9947;57.722;12.012;2022-09-12T01:14:15;8.90;;;6.50;;
19599;SDS011;9947;57.722;12.012;2022-09-12T01:16:46;9.17;;;6.53;;
19599;SDS011;9947;57.722;12.012;2022-09-12T01:19:21;10.87;;;6.50;;
19599;SDS011;9947;57.722;12.012;2022-09-12T01:22:14;8.57;;;6.03;;
19599;SDS011;9947;57.722;12.012;2022-09-12T01:25:06;8.97;;;6.17;;
19599;SDS011;9947;57.722;12.012;2022-09-12T01:27:48;11.53;;;5.87;;
19599;SDS011;9947;57.722;12.012;2022-09-12T01:30:37;7.77;;;5.70;;
19599;SDS011;9947;57.722;12.012;2022-09-12T01:39:07;8.90;;;5.57;;
19599;SDS011;9947;57.722;12.012;2022-09-12T01:41:47;7.67;;;5.43;;
19599;SDS011;9947;57.722;12.012;2022-09-12T01:44:22;9.07;;;6.03;;
19599;SDS011;9947;57.722;12.012;2022-09-12T01:47:01;8.67;;;6.40;;
19599;SDS011;9947;57.722;12.012;2022-09-12T01:49:35;9.70;;;5.53;;
19599;SDS011;9947;57.722;12.012;2022-09-12T01:52:10;12.00;;;5.70;;
19599;SDS011;9947;57.722;12.012;2022-09-12T01:54:44;7.23;;;5.90;;
19599;SDS011;9947;57.722;12.012;2022-09-12T01:57:15;11.07;;;5.80;;
19599;SDS011;9947;57.722;12.012;2022-09-12T01:59:51;8.97;;;5.90;;
19599;SDS011;9947;57.722;12.012;2022-09-12T02:02:26;8.13;;;5.93;;
19599;SDS011;9947;57.722;12.012;2022-09-12T02:04:58;9.47;;;5.47;;
19599;SDS011;9947;57.722;12.012;2022-09-12T02:07:32;8.60;;;5.87;;
19599;SDS011;9947;57.722;12.012;2022-09-12T02:10:05;7.77;;;5.63;;
19599;SDS011;9947;57.722;12.012;2022-09-12T02:12:37;9.47;;;5.50;;
19599;SDS011;9947;57.722;12.012;2022-09-12T02:15:07;8.30;;;6.10;;
19599;SDS011;9947;57.722;12.012;2022-09-12T02:17:38;10.57;;;5.63;;
19599;SDS011;9947;57.722;12.012;2022-09-12T02:20:09;11.00;;;5.60;;
19599;SDS011;9947;57.722;12.012;2022-09-12T02:22:40;8.93;;;5.53;;
19599;SDS011;9947;57.722;12.012;2022-09-12T02:25:08;7.83;;;5.60;;
19599;SDS011;9947;57.722;12.012;2022-09-12T02:27:40;10.17;;;5.63;;
19599;SDS011;9947;57.722;12.012;2022-09-12T02:30:10;7.87;;;5.87;;
19599;SDS011;9947;57.722;12.012;2022-09-12T02:32:44;8.30;;;5.80;;
19599;SDS011;9947;57.722;12.012;2022-09-12T02:35:21;8.43;;;5.77;;
19599;SDS011;9947;57.722;12.012;2022-09-12T02:37:57;7.57;;;5.53;;
19599;SDS011;9947;57.722;12.012;2022-09-12T02:40:27;10.20;;;6.10;;
19599;SDS011;9947;57.722;12.012;2022-09-12T02:42:55;9.10;;;5.83;;
19599;SDS011;9947;57.722;12.012;2022-09-12T02:45:24;7.17;;;5.37;;
19599;SDS011;9947;57.722;12.012;2022-09-12T02:47:55;7.03;;;6.07;;
19599;SDS011;9947;57.722;12.012;2022-09-12T02:50:27;6.83;;;5.50;;
19599;SDS011;9947;57.722;12.012;2022-09-12T02:52:55;8.70;;;5.57;;
19599;SDS011;9947;57.722;12.012;2022-09-12T02:55:27;5.60;;;4.70;;
19599;SDS011;9947;57.722;12.012;2022-09-12T02:57:59;6.20;;;5.03;;
19599;SDS011;9947;57.722;12.012;2022-09-12T03:00:28;11.43;;;5.20;;
19599;SDS011;9947;57.722;12.012;2022-09-12T03:03:08;8.77;;;5.47;;
19599;SDS011;9947;57.722;12.012;2022-09-12T03:05:50;6.20;;;5.30;;
19599;SDS011;9947;57.722;12.012;2022-09-12T03:08:30;6.27;;;5.23;;
19599;SDS011;9947;57.722;12.012;2022-09-12T03:11:22;5.73;;;4.70;;
19599;SDS011;9947;57.722;12.012;2022-09-12T03:13:59;7.23;;;5.50;;
19599;SDS011;9947;57.722;12.012;2022-09-12T03:16:40;7.77;;;5.73;;
19599;SDS011;9947;57.722;12.012;2022-09-12T03:19:15;8.17;;;5.40;;
19599;SDS011;9947;57.722;12.012;2022-09-12T03:21:52;7.93;;;5.70;;
19599;SDS011;9947;57.722;12.012;2022-09-12T03:24:29;7.67;;;5.60;;
19599;SDS011;9947;57.722;12.012;2022-09-12T03:27:03;8.27;;;5.77;;
19599;SDS011;9947;57.722;12.012;2022-09-12T03:29:35;8.13;;;5.53;;
19599;SDS011;9947;57.722;12.012;2022-09-12T03:32:04;10.87;;;6.37;;
19599;SDS011;9947;57.722;12.012;2022-09-12T03:34:34;6.53;;;5.63;;
19599;SDS011;9947;57.722;12.012;2022-09-12T03:37:01;9.83;;;5.83;;
19599;SDS011;9947;57.722;12.012;2022-09-12T03:39:28;13.10;;;5.87;;
19599;SDS011;9947;57.722;12.012;2022-09-12T03:41:55;10.50;;;6.10;;
19599;SDS011;9947;57.722;12.012;2022-09-12T03:44:25;9.30;;;6.07;;
19599;SDS011;9947;57.722;12.012;2022-09-12T03:46:51;8.23;;;6.30;;
19599;SDS011;9947;57.722;12.012;2022-09-12T03:49:18;9.37;;;6.50;;
19599;SDS011;9947;57.722;12.012;2022-09-12T03:51:46;8.27;;;6.43;;
19599;SDS011;9947;57.722;12.012;2022-09-12T03:54:13;9.37;;;6.10;;
19599;SDS011;9947;57.722;12.012;2022-09-12T03:56:41;8.27;;;6.73;;
19599;SDS011;9947;57.722;12.012;2022-09-12T03:59:08;8.87;;;6.07;;
19599;SDS011;9947;57.722;12.012;2022-09-12T04:01:38;9.43;;;5.63;;
19599;SDS011;9947;57.722;12.012;2022-09-12T04:04:06;7.77;;;5.70;;
19599;SDS011;9947;57.722;12.012;2022-09-12T04:06:38;11.70;;;6.07;;
19599;SDS011;9947;57.722;12.012;2022-09-12T04:09:07;9.73;;;5.73;;
19599;SDS011;9947;57.722;12.012;2022-09-12T04:11:34;9.47;;;6.07;;
19599;SDS011;9947;57.722;12.012;2022-09-12T04:14:01;7.77;;;5.50;;
19599;SDS011;9947;57.722;12.012;2022-09-12T04:16:27;7.53;;;5.80;;
19599;SDS011;9947;57.722;12.012;2022-09-12T04:18:54;9.27;;;5.90;;
19599;SDS011;9947;57.722;12.012;2022-09-12T04:21:21;10.03;;;5.97;;
19599;SDS011;9947;57.722;12.012;2022-09-12T04:23:48;10.37;;;6.37;;
19599;SDS011;9947;57.722;12.012;2022-09-12T04:26:17;9.67;;;7.77;;
19599;SDS011;9947;57.722;12.012;2022-09-12T04:28:45;6.90;;;6.00;;
19599;SDS011;9947;57.722;12.012;2022-09-12T04:31:13;10.37;;;6.70;;
19599;SDS011;9947;57.722;12.012;2022-09-12T04:33:42;12.80;;;6.67;;
19599;SDS011;9947;57.722;12.012;2022-09-12T04:36:10;9.67;;;6.47;;
19599;SDS011;9947;57.722;12.012;2022-09-12T04:38:40;7.43;;;6.00;;
19599;SDS011;9947;57.722;12.012;2022-09-12T04:41:11;11.57;;;6.27;;
19599;SDS011;9947;57.722;12.012;2022-09-12T04:43:41;7.93;;;6.03;;
19599;SDS011;9947;57.722;12.012;2022-09-12T04:46:11;10.23;;;6.40;;
19599;SDS011;9947;57.722;12.012;2022-09-12T04:48:40;8.43;;;6.40;;
19599;SDS011;9947;57.722;12.012;2022-09-12T04:51:07;9.80;;;6.40;;
19599;SDS011;9947;57.722;12.012;2022-09-12T04:53:37;9.23;;;6.10;;
19599;SDS011;9947;57.722;12.012;2022-09-12T04:56:05;8.17;;;6.67;;
19599;SDS011;9947;57.722;12.012;2022-09-12T04:58:33;9.17;;;6.87;;
19599;SDS011;9947;57.722;12.012;2022-09-12T05:01:06;11.47;;;7.17;;
19599;SDS011;9947;57.722;12.012;2022-09-12T05:03:34;11.40;;;7.00;;
19599;SDS011;9947;57.722;12.012;2022-09-12T05:06:04;9.17;;;6.83;;
19599;SDS011;9947;57.722;12.012;2022-09-12T05:08:38;9.23;;;6.43;;
19599;SDS011;9947;57.722;12.012;2022-09-12T05:11:13;9.77;;;6.93;;
19599;SDS011;9947;57.722;12.012;2022-09-12T05:13:42;11.03;;;7.07;;
19599;SDS011;9947;57.722;12.012;2022-09-12T05:16:11;9.33;;;6.50;;
19599;SDS011;9947;57.722;12.012;2022-09-12T05:18:39;12.17;;;6.27;;
19599;SDS011;9947;57.722;12.012;2022-09-12T05:21:09;11.47;;;6.50;;
19599;SDS011;9947;57.722;12.012;2022-09-12T05:23:37;11.80;;;6.70;;
19599;SDS011;9947;57.722;12.012;2022-09-12T05:26:04;13.13;;;6.30;;
19599;SDS011;9947;57.722;12.012;2022-09-12T05:28:33;12.73;;;6.17;;
19599;SDS011;9947;57.722;12.012;2022-09-12T05:31:04;7.70;;;5.17;;
19599;SDS011;9947;57.722;12.012;2022-09-12T05:33:34;9.30;;;6.60;;
19599;SDS011;9947;57.722;12.012;2022-09-12T05:36:03;7.83;;;6.37;;
19599;SDS011;9947;57.722;12.012;2022-09-12T05:38:33;7.60;;;6.00;;
19599;SDS011;9947;57.722;12.012;2022-09-12T05:41:03;8.93;;;6.13;;
19599;SDS011;9947;57.722;12.012;2022-09-12T05:43:31;8.63;;;5.73;;
19599;SDS011;9947;57.722;12.012;2022-09-12T05:46:00;7.07;;;5.63;;
19599;SDS011;9947;57.722;12.012;2022-09-12T05:48:27;9.87;;;6.13;;
19599;SDS011;9947;57.722;12.012;2022-09-12T05:50:59;9.10;;;5.67;;
19599;SDS011;9947;57.722;12.012;2022-09-12T05:53:29;7.90;;;5.50;;
19599;SDS011;9947;57.722;12.012;2022-09-12T05:56:02;8.57;;;5.63;;
19599;SDS011;9947;57.722;12.012;2022-09-12T05:58:30;9.50;;;5.60;;
19599;SDS011;9947;57.722;12.012;2022-09-12T06:01:00;8.03;;;5.10;;
19599;SDS011;9947;57.722;12.012;2022-09-12T06:03:28;9.50;;;6.10;;
19599;SDS011;9947;57.722;12.012;2022-09-12T06:05:55;9.47;;;6.43;;
19599;SDS011;9947;57.722;12.012;2022-09-12T06:08:26;8.53;;;5.73;;
19599;SDS011;9947;57.722;12.012;2022-09-12T06:10:57;7.77;;;5.90;;
19599;SDS011;9947;57.722;12.012;2022-09-12T06:13:24;8.63;;;4.87;;
19599;SDS011;9947;57.722;12.012;2022-09-12T06:15:51;5.00;;;4.50;;
19599;SDS011;9947;57.722;12.012;2022-09-12T06:18:18;10.63;;;5.00;;
19599;SDS011;9947;57.722;12.012;2022-09-12T06:20:45;8.87;;;4.70;;
19599;SDS011;9947;57.722;12.012;2022-09-12T06:23:12;6.77;;;4.50;;
19599;SDS011;9947;57.722;12.012;2022-09-12T06:25:46;7.50;;;4.93;;
19599;SDS011;9947;57.722;12.012;2022-09-12T06:28:13;6.43;;;4.87;;
19599;SDS011;9947;57.722;12.012;2022-09-12T06:30:40;5.80;;;4.80;;
19599;SDS011;9947;57.722;12.012;2022-09-12T06:33:07;11.20;;;5.40;;
19599;SDS011;9947;57.722;12.012;2022-09-12T06:35:35;7.10;;;5.20;;
19599;SDS011;9947;57.722;12.012;2022-09-12T06:38:02;8.70;;;5.10;;
19599;SDS011;9947;57.722;12.012;2022-09-12T06:40:29;7.97;;;5.27;;
19599;SDS011;9947;57.722;12.012;2022-09-12T06:43:01;6.70;;;4.97;;
19599;SDS011;9947;57.722;12.012;2022-09-12T06:45:28;9.33;;;5.20;;
19599;SDS011;9947;57.722;12.012;2022-09-12T06:47:55;6.30;;;4.83;;
19599;SDS011;9947;57.722;12.012;2022-09-12T06:50:23;6.57;;;4.40;;
19599;SDS011;9947;57.722;12.012;2022-09-12T06:52:50;7.33;;;4.80;;
19599;SDS011;9947;57.722;12.012;2022-09-12T06:55:17;8.37;;;4.40;;
19599;SDS011;9947;57.722;12.012;2022-09-12T06:57:43;9.40;;;4.97;;
19599;SDS011;9947;57.722;12.012;2022-09-12T07:00:12;6.27;;;4.17;;
19599;SDS011;9947;57.722;12.012;2022-09-12T07:02:39;9.80;;;4.60;;
19599;SDS011;9947;57.722;12.012;2022-09-12T07:05:06;7.73;;;4.50;;
19599;SDS011;9947;57.722;12.012;2022-09-12T07:07:35;4.80;;;4.30;;
19599;SDS011;9947;57.722;12.012;2022-09-12T07:10:02;7.27;;;4.43;;
19599;SDS011;9947;57.722;12.012;2022-09-12T07:12:30;6.40;;;4.43;;
19599;SDS011;9947;57.722;12.012;2022-09-12T07:14:57;5.10;;;4.60;;
19599;SDS011;9947;57.722;12.012;2022-09-12T07:17:29;6.43;;;4.20;;
19599;SDS011;9947;57.722;12.012;2022-09-12T07:19:55;7.40;;;4.23;;
19599;SDS011;9947;57.722;12.012;2022-09-12T07:22:22;9.53;;;4.17;;
19599;SDS011;9947;57.722;12.012;2022-09-12T07:24:49;7.17;;;4.63;;
19599;SDS011;9947;57.722;12.012;2022-09-12T07:27:26;8.80;;;4.00;;
19599;SDS011;9947;57.722;12.012;2022-09-12T07:29:59;7.73;;;4.23;;
19599;SDS011;9947;57.722;12.012;2022-09-12T07:32:30;7.27;;;4.10;;
19599;SDS011;9947;57.722;12.012;2022-09-12T07:34:57;7.00;;;4.47;;
19599;SDS011;9947;57.722;12.012;2022-09-12T07:37:28;4.90;;;3.90;;
19599;SDS011;9947;57.722;12.012;2022-09-12T07:39:55;5.57;;;3.90;;
19599;SDS011;9947;57.722;12.012;2022-09-12T07:42:23;8.93;;;4.30;;
19599;SDS011;9947;57.722;12.012;2022-09-12T07:44:49;5.90;;;4.10;;
19599;SDS011;9947;57.722;12.012;2022-09-12T07:47:17;5.10;;;3.90;;
19599;SDS011;9947;57.722;12.012;2022-09-12T07:49:45;6.80;;;4.27;;
19599;SDS011;9947;57.722;12.012;2022-09-12T07:52:12;7.37;;;3.80;;
19599;SDS011;9947;57.722;12.012;2022-09-12T07:54:39;8.70;;;4.40;;
19599;SDS011;9947;57.722;12.012;2022-09-12T07:57:06;7.53;;;4.20;;
19599;SDS011;9947;57.722;12.012;2022-09-12T07:59:33;4.83;;;4.17;;
19599;SDS011;9947;57.722;12.012;2022-09-12T08:01:59;5.53;;;4.33;;
19599;SDS011;9947;57.722;12.012;2022-09-12T08:04:28;6.07;;;4.20;;
19599;SDS011;9947;57.722;12.012;2022-09-12T08:06:56;6.93;;;3.93;;
19599;SDS011;9947;57.722;12.012;2022-09-12T08:09:26;6.00;;;3.90;;
19599;SDS011;9947;57.722;12.012;2022-09-12T08:11:54;6.27;;;3.80;;
19599;SDS011;9947;57.722;12.012;2022-09-12T08:14:21;8.33;;;4.70;;
19599;SDS011;9947;57.722;12.012;2022-09-12T08:16:48;5.23;;;4.33;;
19599;SDS011;9947;57.722;12.012;2022-09-12T08:19:15;5.37;;;3.93;;
19599;SDS011;9947;57.722;12.012;2022-09-12T08:21:46;8.10;;;3.63;;
19599;SDS011;9947;57.722;12.012;2022-09-12T08:24:15;4.20;;;3.30;;
19599;SDS011;9947;57.722;12.012;2022-09-12T08:26:42;5.23;;;3.93;;
19599;SDS011;9947;57.722;12.012;2022-09-12T08:29:15;5.10;;;3.50;;
19599;SDS011;9947;57.722;12.012;2022-09-12T08:31:42;5.37;;;3.53;;
19599;SDS011;9947;57.722;12.012;2022-09-12T08:34:13;7.77;;;3.37;;
19599;SDS011;9947;57.722;12.012;2022-09-12T08:36:42;4.73;;;3.43;;
19599;SDS011;9947;57.722;12.012;2022-09-12T08:39:10;7.37;;;3.33;;
19599;SDS011;9947;57.722;12.012;2022-09-12T08:41:44;7.53;;;3.40;;
19599;SDS011;9947;57.722;12.012;2022-09-12T08:44:35;4.10;;;3.47;;
19599;SDS011;9947;57.722;12.012;2022-09-12T08:47:19;7.63;;;3.63;;
19599;SDS011;9947;57.722;12.012;2022-09-12T08:49:55;9.83;;;3.93;;
19599;SDS011;9947;57.722;12.012;2022-09-12T08:52:28;6.40;;;3.23;;
19599;SDS011;9947;57.722;12.012;2022-09-12T08:55:02;4.13;;;3.00;;
19599;SDS011;9947;57.722;12.012;2022-09-12T08:57:34;5.27;;;3.20;;
19599;SDS011;9947;57.722;12.012;2022-09-12T09:00:02;5.63;;;3.30;;
19599;SDS011;9947;57.722;12.012;2022-09-12T09:02:34;3.70;;;3.20;;
19599;SDS011;9947;57.722;12.012;2022-09-12T09:05:14;3.13;;;2.83;;
19599;SDS011;9947;57.722;12.012;2022-09-12T09:07:59;3.47;;;2.77;;
19599;SDS011;9947;57.722;12.012;2022-09-12T09:10:43;4.13;;;3.03;;
19599;SDS011;9947;57.722;12.012;2022-09-12T09:13:20;5.20;;;3.13;;
19599;SDS011;9947;57.722;12.012;2022-09-12T09:16:16;5.73;;;3.00;;
19599;SDS011;9947;57.722;12.012;2022-09-12T09:19:01;6.37;;;2.70;;
19599;SDS011;9947;57.722;12.012;2022-09-12T09:21:33;3.53;;;2.67;;
19599;SDS011;9947;57.722;12.012;2022-09-12T09:24:07;4.87;;;3.00;;
19599;SDS011;9947;57.722;12.012;2022-09-12T09:26:42;5.33;;;2.70;;
19599;SDS011;9947;57.722;12.012;2022-09-12T09:29:17;3.60;;;2.67;;
19599;SDS011;9947;57.722;12.012;2022-09-12T09:31:46;4.20;;;2.87;;
19599;SDS011;9947;57.722;12.012;2022-09-12T09:34:17;4.00;;;2.70;;
19599;SDS011;9947;57.722;12.012;2022-09-12T09:36:48;3.73;;;2.10;;
19599;SDS011;9947;57.722;12.012;2022-09-12T09:39:28;3.93;;;1.90;;
19599;SDS011;9947;57.722;12.012;2022-09-12T09:42:08;2.33;;;1.80;;
19599;SDS011;9947;57.722;12.012;2022-09-12T09:44:42;3.10;;;1.80;;
19599;SDS011;9947;57.722;12.012;2022-09-12T09:47:13;1.93;;;1.70;;
19599;SDS011;9947;57.722;12.012;2022-09-12T09:49:40;2.00;;;1.80;;
19599;SDS011;9947;57.722;12.012;2022-09-12T09:52:07;2.17;;;1.60;;
19599;SDS011;9947;57.722;12.012;2022-09-12T09:54:39;1.93;;;1.83;;
19599;SDS011;9947;57.722;12.012;2022-09-12T10:03:23;3.45;;;1.98;;
19599;SDS011;9947;57.722;12.012;2022-09-12T10:06:01;3.13;;;2.20;;
19599;SDS011;9947;57.722;12.012;2022-09-12T10:08:33;2.93;;;2.30;;
19599;SDS011;9947;57.722;12.012;2022-09-12T10:11:05;6.30;;;2.20;;
19599;SDS011;9947;57.722;12.012;2022-09-12T10:13:50;3.00;;;2.03;;
19599;SDS011;9947;57.722;12.012;2022-09-12T10:16:21;3.60;;;2.20;;
19599;SDS011;9947;57.722;12.012;2022-09-12T10:18:51;3.67;;;2.33;;
19599;SDS011;9947;57.722;12.012;2022-09-12T10:21:20;4.53;;;2.40;;
19599;SDS011;9947;57.722;12.012;2022-09-12T10:23:57;2.83;;;2.50;;
19599;SDS011;9947;57.722;12.012;2022-09-12T10:26:31;7.57;;;2.57;;
19599;SDS011;9947;57.722;12.012;2022-09-12T10:29:02;3.10;;;2.70;;
19599;SDS011;9947;57.722;12.012;2022-09-12T10:31:40;6.70;;;3.00;;
19599;SDS011;9947;57.722;12.012;2022-09-12T10:34:19;4.23;;;2.50;;
19599;SDS011;9947;57.722;12.012;2022-09-12T10:36:50;4.73;;;2.40;;
19599;SDS011;9947;57.722;12.012;2022-09-12T10:39:22;3.90;;;2.60;;
19599;SDS011;9947;57.722;12.012;2022-09-12T10:41:48;4.50;;;2.57;;
19599;SDS011;9947;57.722;12.012;2022-09-12T10:44:16;6.60;;;2.50;;
19599;SDS011;9947;57.722;12.012;2022-09-12T10:46:50;3.30;;;2.60;;
19599;SDS011;9947;57.722;12.012;2022-09-12T10:52:21;3.53;;;2.57;;
19599;SDS011;9947;57.722;12.012;2022-09-12T10:54:57;4.20;;;2.50;;
19599;SDS011;9947;57.722;12.012;2022-09-12T10:57:39;4.70;;;2.50;;
19599;SDS011;9947;57.722;12.012;2022-09-12T11:00:21;3.37;;;2.50;;
19599;SDS011;9947;57.722;12.012;2022-09-12T11:05:45;3.77;;;2.40;;
19599;SDS011;9947;57.722;12.012;2022-09-12T11:08:25;2.47;;;2.15;;
19599;SDS011;9947;57.722;12.012;2022-09-12T11:11:28;3.53;;;2.22;;
19599;SDS011;9947;57.722;12.012;2022-09-12T11:14:31;2.53;;;1.92;;
19599;SDS011;9947;57.722;12.012;2022-09-12T11:18:50;2.25;;;1.77;;
19599;SDS011;9947;57.722;12.012;2022-09-12T11:20:30;2.00;;;1.80;;
19599;SDS011;9947;57.722;12.012;2022-09-12T11:23:35;1.83;;;1.60;;
19599;SDS011;9947;57.722;12.012;2022-09-12T11:26:25;3.33;;;1.80;;
19599;SDS011;9947;57.722;12.012;2022-09-12T11:29:09;1.88;;;1.52;;
19599;SDS011;9947;57.722;12.012;2022-09-12T11:31:46;1.73;;;1.63;;
19599;SDS011;9947;57.722;12.012;2022-09-12T11:34:28;1.93;;;1.70;;
19599;SDS011;9947;57.722;12.012;2022-09-12T11:37:13;2.17;;;1.90;;
19599;SDS011;9947;57.722;12.012;2022-09-12T11:39:57;6.53;;;2.10;;
19599;SDS011;9947;57.722;12.012;2022-09-12T11:42:30;3.13;;;1.90;;
19599;SDS011;9947;57.722;12.012;2022-09-12T11:45:02;4.13;;;2.00;;
19599;SDS011;9947;57.722;12.012;2022-09-12T11:47:38;1.73;;;1.63;;
19599;SDS011;9947;57.722;12.012;2022-09-12T11:50:15;1.80;;;1.70;;
19599;SDS011;9947;57.722;12.012;2022-09-12T11:52:47;2.07;;;1.83;;
19599;SDS011;9947;57.722;12.012;2022-09-12T11:55:20;2.90;;;1.77;;
19599;SDS011;9947;57.722;12.012;2022-09-12T11:57:51;1.70;;;1.60;;
19599;SDS011;9947;57.722;12.012;2022-09-12T12:00:22;4.43;;;1.87;;
19599;SDS011;9947;57.722;12.012;2022-09-12T12:02:54;2.23;;;1.80;;
19599;SDS011;9947;57.722;12.012;2022-09-12T12:05:31;9.97;;;2.00;;
19599;SDS011;9947;57.722;12.012;2022-09-12T12:08:04;2.00;;;1.80;;
19599;SDS011;9947;57.722;12.012;2022-09-12T12:10:35;2.90;;;1.80;;
19599;SDS011;9947;57.722;12.012;2022-09-12T12:13:06;1.63;;;1.53;;
19599;SDS011;9947;57.722;12.012;2022-09-12T12:15:48;2.00;;;1.80;;
19599;SDS011;9947;57.722;12.012;2022-09-12T12:18:28;3.33;;;1.80;;
19599;SDS011;9947;57.722;12.012;2022-09-12T12:21:13;2.50;;;1.80;;
19599;SDS011;9947;57.722;12.012;2022-09-12T12:24:01;1.50;;;1.40;;
19599;SDS011;9947;57.722;12.012;2022-09-12T12:26:41;2.33;;;1.90;;
19599;SDS011;9947;57.722;12.012;2022-09-12T12:29:37;3.63;;;2.00;;
19599;SDS011;9947;57.722;12.012;2022-09-12T12:32:20;2.37;;;1.90;;
19599;SDS011;9947;57.722;12.012;2022-09-12T12:34:48;2.70;;;2.17;;
19599;SDS011;9947;57.722;12.012;2022-09-12T12:40:21;5.37;;;1.90;;
19599;SDS011;9947;57.722;12.012;2022-09-12T12:43:01;2.53;;;1.67;;
19599;SDS011;9947;57.722;12.012;2022-09-12T12:46:05;3.67;;;2.00;;
19599;SDS011;9947;57.722;12.012;2022-09-12T12:51:37;2.67;;;1.63;;
19599;SDS011;9947;57.722;12.012;2022-09-12T12:57:16;1.93;;;1.70;;
19599;SDS011;9947;57.722;12.012;2022-09-12T13:00:33;2.97;;;2.10;;
19599;SDS011;9947;57.722;12.012;2022-09-12T13:03:08;2.63;;;1.70;;
19599;SDS011;9947;57.722;12.012;2022-09-12T13:16:15;3.00;;;1.80;;
19599;SDS011;9947;57.722;12.012;2022-09-12T13:18:57;2.97;;;2.03;;
19599;SDS011;9947;57.722;12.012;2022-09-12T13:24:47;4.10;;;1.80;;
19599;SDS011;9947;57.722;12.012;2022-09-12T13:27:24;2.93;;;2.10;;
19599;SDS011;9947;57.722;12.012;2022-09-12T13:30:04;3.43;;;1.73;;
19599;SDS011;9947;57.722;12.012;2022-09-12T13:32:47;1.88;;;1.70;;
19599;SDS011;9947;57.722;12.012;2022-09-12T13:35:25;2.20;;;2.00;;
19599;SDS011;9947;57.722;12.012;2022-09-12T13:38:06;2.43;;;2.00;;
19599;SDS011;9947;57.722;12.012;2022-09-12T13:40:56;3.20;;;2.13;;
19599;SDS011;9947;57.722;12.012;2022-09-12T13:44:07;3.50;;;2.20;;
19599;SDS011;9947;57.722;12.012;2022-09-12T13:46:51;2.37;;;2.07;;
19599;SDS011;9947;57.722;12.012;2022-09-12T13:49:31;8.23;;;2.90;;
19599;SDS011;9947;57.722;12.012;2022-09-12T13:59:19;2.40;;;2.20;;
19599;SDS011;9947;57.722;12.012;2022-09-12T14:02:44;4.63;;;2.63;;
19599;SDS011;9947;57.722;12.012;2022-09-12T14:05:58;4.50;;;2.50;;
19599;SDS011;9947;57.722;12.012;2022-09-12T14:08:51;3.23;;;2.43;;
19599;SDS011;9947;57.722;12.012;2022-09-12T14:11:36;3.43;;;2.73;;
19599;SDS011;9947;57.722;12.012;2022-09-12T14:14:23;3.17;;;2.80;;
19599;SDS011;9947;57.722;12.012;2022-09-12T14:16:55;5.70;;;2.80;;
19599;SDS011;9947;57.722;12.012;2022-09-12T14:19:30;3.87;;;2.77;;
19599;SDS011;9947;57.722;12.012;2022-09-12T14:24:55;5.30;;;2.90;;
19599;SDS011;9947;57.722;12.012;2022-09-12T14:27:38;2.80;;;2.60;;
19599;SDS011;9947;57.722;12.012;2022-09-12T14:30:27;4.27;;;2.80;;
19599;SDS011;9947;57.722;12.012;2022-09-12T14:33:05;5.33;;;2.90;;
19599;SDS011;9947;57.722;12.012;2022-09-12T14:35:48;4.37;;;2.60;;
19599;SDS011;9947;57.722;12.012;2022-09-12T14:38:29;3.77;;;2.90;;
19599;SDS011;9947;57.722;12.012;2022-09-12T14:41:12;3.77;;;2.67;;
19599;SDS011;9947;57.722;12.012;2022-09-12T14:44:05;6.37;;;3.13;;
19599;SDS011;9947;57.722;12.012;2022-09-12T14:46:44;5.30;;;3.17;;
19599;SDS011;9947;57.722;12.012;2022-09-12T14:49:20;3.60;;;2.63;;
19599;SDS011;9947;57.722;12.012;2022-09-12T14:51:53;5.27;;;2.80;;
19599;SDS011;9947;57.722;12.012;2022-09-12T14:54:45;3.20;;;2.80;;
19599;SDS011;9947;57.722;12.012;2022-09-12T14:57:30;3.83;;;2.60;;
19599;SDS011;9947;57.722;12.012;2022-09-12T15:00:16;3.90;;;2.80;;
19599;SDS011;9947;57.722;12.012;2022-09-12T15:02:45;5.43;;;2.80;;
19599;SDS011;9947;57.722;12.012;2022-09-12T15:05:14;6.10;;;2.77;;
19599;SDS011;9947;57.722;12.012;2022-09-12T15:08:02;5.40;;;2.90;;
19599;SDS011;9947;57.722;12.012;2022-09-12T15:10:43;5.13;;;2.80;;
19599;SDS011;9947;57.722;12.012;2022-09-12T15:13:20;3.40;;;2.83;;
19599;SDS011;9947;57.722;12.012;2022-09-12T15:15:50;5.43;;;2.97;;
19599;SDS011;9947;57.722;12.012;2022-09-12T15:18:27;5.00;;;2.90;;
19599;SDS011;9947;57.722;12.012;2022-09-12T15:20:54;5.37;;;3.20;;
19599;SDS011;9947;57.722;12.012;2022-09-12T15:23:33;10.63;;;3.47;;
19599;SDS011;9947;57.722;12.012;2022-09-12T15:26:06;3.70;;;2.80;;
19599;SDS011;9947;57.722;12.012;2022-09-12T15:28:33;7.53;;;2.90;;
19599;SDS011;9947;57.722;12.012;2022-09-12T15:31:04;3.93;;;2.83;;
19599;SDS011;9947;57.722;12.012;2022-09-12T15:33:39;5.57;;;2.80;;
19599;SDS011;9947;57.722;12.012;2022-09-12T15:36:12;9.30;;;3.10;;
19599;SDS011;9947;57.722;12.012;2022-09-12T15:38:41;5.20;;;3.00;;
19599;SDS011;9947;57.722;12.012;2022-09-12T15:41:19;3.90;;;3.03;;
19599;SDS011;9947;57.722;12.012;2022-09-12T15:43:47;4.57;;;3.07;;
19599;SDS011;9947;57.722;12.012;2022-09-12T15:46:15;10.33;;;2.90;;
19599;SDS011;9947;57.722;12.012;2022-09-12T15:48:42;4.90;;;3.10;;
19599;SDS011;9947;57.722;12.012;2022-09-12T15:51:12;3.67;;;3.00;;
19599;SDS011;9947;57.722;12.012;2022-09-12T15:53:40;7.13;;;3.13;;
19599;SDS011;9947;57.722;12.012;2022-09-12T15:56:07;3.20;;;2.90;;
19599;SDS011;9947;57.722;12.012;2022-09-12T15:58:35;3.50;;;2.70;;
19599;SDS011;9947;57.722;12.012;2022-09-12T16:01:12;3.40;;;2.80;;
19599;SDS011;9947;57.722;12.012;2022-09-12T16:03:42;5.97;;;3.10;;
19599;SDS011;9947;57.722;12.012;2022-09-12T16:06:11;6.90;;;3.00;;
19599;SDS011;9947;57.722;12.012;2022-09-12T16:08:39;7.47;;;3.30;;
19599;SDS011;9947;57.722;12.012;2022-09-12T16:11:09;4.67;;;3.00;;
19599;SDS011;9947;57.722;12.012;2022-09-12T16:13:52;8.53;;;3.30;;
19599;SDS011;9947;57.722;12.012;2022-09-12T16:16:26;3.50;;;3.20;;